createdAt,value
2022-10-19T00:01:28.456Z,11.85
2022-10-19T00:04:02.477Z,10.80
2022-10-19T00:06:37.283Z,11.55
2022-10-19T00:09:15.084Z,10.65
2022-10-19T00:11:50.663Z,10.60
2022-10-19T00:14:23.826Z,12.50
2022-10-19T00:16:58.053Z,11.18
2022-10-19T00:19:30.046Z,9.77
2022-10-19T00:22:01.936Z,10.20
2022-10-19T00:24:33.899Z,10.63
2022-10-19T00:27:06.329Z,10.40
2022-10-19T00:29:38.751Z,11.00
2022-10-19T00:32:10.953Z,9.75
2022-10-19T00:34:43.014Z,11.05
2022-10-19T00:37:14.941Z,11.05
2022-10-19T00:39:46.998Z,11.27
2022-10-19T00:42:19.047Z,10.90
2022-10-19T00:44:53.522Z,11.38
2022-10-19T00:47:28.755Z,12.73
2022-10-19T00:50:02.174Z,10.98
2022-10-19T00:52:34.692Z,13.73
2022-10-19T00:55:08.655Z,12.20
2022-10-19T00:57:41.589Z,11.65
2022-10-19T01:00:14.016Z,11.88
2022-10-19T01:02:46.490Z,10.30
2022-10-19T01:05:18.862Z,12.70
2022-10-19T01:07:51.299Z,11.93
2022-10-19T01:10:34.858Z,11.98
2022-10-19T01:14:03.617Z,10.60
2022-10-19T01:17:17.066Z,11.43
2022-10-19T01:20:29.796Z,12.63
2022-10-19T01:23:39.632Z,12.23
2022-10-19T01:26:57.155Z,14.07
2022-10-19T01:30:01.031Z,14.30
2022-10-19T01:33:06.762Z,15.15
2022-10-19T01:36:36.805Z,15.13
2022-10-19T01:39:49.128Z,15.40
2022-10-19T01:42:56.300Z,17.58
2022-10-19T01:45:47.620Z,16.25
2022-10-19T01:48:30.731Z,16.38
2022-10-19T01:51:18.850Z,15.85
2022-10-19T01:54:01.070Z,17.55
2022-10-19T01:56:37.604Z,16.40
2022-10-19T01:59:12.994Z,15.73
2022-10-19T02:01:49.877Z,15.25
2022-10-19T02:04:24.768Z,15.95
2022-10-19T02:06:57.446Z,14.80
2022-10-19T02:09:30.118Z,15.25
2022-10-19T02:12:06.133Z,14.95
2022-10-19T02:14:46.172Z,15.05
2022-10-19T02:17:30.619Z,14.80
2022-10-19T02:20:06.759Z,13.40
2022-10-19T02:22:39.673Z,13.35
2022-10-19T02:25:13.027Z,15.65
2022-10-19T02:27:45.498Z,16.55
2022-10-19T02:30:19.449Z,17.25
2022-10-19T02:32:52.766Z,15.63
2022-10-19T02:35:25.073Z,18.23
2022-10-19T02:38:01.266Z,16.08
2022-10-19T02:40:39.779Z,15.32
2022-10-19T02:43:19.206Z,16.00
2022-10-19T02:46:04.163Z,14.20
2022-10-19T02:48:44.939Z,15.57
2022-10-19T02:51:31.738Z,13.50
2022-10-19T02:54:25.939Z,14.05
2022-10-19T02:56:58.212Z,15.68
2022-10-19T02:59:30.313Z,14.45
2022-10-19T03:02:02.188Z,16.65
2022-10-19T03:04:34.333Z,17.58
2022-10-19T03:07:06.352Z,16.45
2022-10-19T03:09:39.915Z,17.67
2022-10-19T03:12:14.041Z,17.15
2022-10-19T03:14:46.078Z,17.98
2022-10-19T03:17:18.121Z,17.60
2022-10-19T03:19:50.098Z,17.05
2022-10-19T03:22:22.033Z,18.00
2022-10-19T03:24:53.908Z,16.95
2022-10-19T03:27:25.930Z,17.73
2022-10-19T03:29:58.026Z,19.23
2022-10-19T03:32:30.122Z,18.90
2022-10-19T03:35:02.088Z,18.20
2022-10-19T03:37:34.379Z,18.15
2022-10-19T03:40:06.978Z,19.42
2022-10-19T03:42:39.556Z,19.20
2022-10-19T03:45:11.548Z,19.30
2022-10-19T03:47:43.570Z,18.98
2022-10-19T03:50:21.368Z,19.08
2022-10-19T03:52:55.545Z,17.75
2022-10-19T03:55:27.543Z,18.83
2022-10-19T03:58:00.657Z,20.02
2022-10-19T04:00:32.713Z,20.23
2022-10-19T04:03:04.598Z,21.25
2022-10-19T04:05:36.624Z,21.55
2022-10-19T04:08:08.541Z,19.50
2022-10-19T04:10:40.479Z,21.08
2022-10-19T04:13:12.397Z,20.20
2022-10-19T04:15:44.295Z,18.13
2022-10-19T04:18:16.349Z,20.15
2022-10-19T04:20:48.367Z,20.90
2022-10-19T04:23:28.572Z,19.55
2022-10-19T04:26:05.007Z,18.45
2022-10-19T04:28:38.473Z,17.77
2022-10-19T04:31:11.168Z,18.95
2022-10-19T04:33:43.731Z,18.00
2022-10-19T04:36:15.915Z,19.35
2022-10-19T04:38:47.894Z,18.77
2022-10-19T04:41:21.438Z,19.48
2022-10-19T04:43:58.565Z,19.02
2022-10-19T04:46:33.298Z,18.77
2022-10-19T04:49:06.914Z,20.33
2022-10-19T04:51:39.052Z,19.95
2022-10-19T04:54:11.059Z,20.00
2022-10-19T04:56:43.103Z,20.40
2022-10-19T04:59:15.086Z,21.23
2022-10-19T05:01:47.549Z,22.58
2022-10-19T05:04:19.614Z,19.85
2022-10-19T05:06:51.570Z,23.80
2022-10-19T05:09:23.582Z,20.50
2022-10-19T05:11:55.798Z,19.48
2022-10-19T05:17:04.653Z,17.52
2022-10-19T05:19:36.530Z,16.90
2022-10-19T05:22:09.363Z,18.40
2022-10-19T05:24:41.353Z,17.17
2022-10-19T05:27:13.276Z,17.30
2022-10-19T05:29:45.252Z,18.33
2022-10-19T05:32:17.544Z,19.80
2022-10-19T05:34:49.519Z,18.88
2022-10-19T05:37:22.009Z,19.17
2022-10-19T05:39:57.376Z,18.58
2022-10-19T05:42:29.317Z,18.90
2022-10-19T05:45:01.300Z,19.50
2022-10-19T05:47:34.366Z,19.05
2022-10-19T05:50:06.786Z,19.55
2022-10-19T05:52:38.922Z,19.08
2022-10-19T05:55:10.944Z,19.30
2022-10-19T05:57:42.803Z,17.20
2022-10-19T06:00:15.170Z,16.25
2022-10-19T06:02:47.224Z,16.00
2022-10-19T06:05:19.116Z,17.05
2022-10-19T06:07:51.072Z,16.00
2022-10-19T06:10:23.983Z,16.40
2022-10-19T06:12:56.075Z,16.10
2022-10-19T06:15:28.038Z,14.30
2022-10-19T06:18:05.111Z,14.27
2022-10-19T06:20:39.833Z,12.73
2022-10-19T06:23:12.853Z,14.07
2022-10-19T06:25:44.876Z,13.32
2022-10-19T06:28:17.048Z,12.85
2022-10-19T06:30:49.227Z,13.70
2022-10-19T06:33:21.403Z,13.93
2022-10-19T06:35:53.524Z,11.63
2022-10-19T06:38:25.491Z,12.95
2022-10-19T06:41:01.287Z,13.25
2022-10-19T06:43:34.892Z,12.40
2022-10-19T06:46:09.176Z,13.80
2022-10-19T06:48:43.395Z,12.07
2022-10-19T06:51:15.620Z,13.93
2022-10-19T06:53:48.977Z,11.65
2022-10-19T06:56:24.526Z,11.00
2022-10-19T06:59:26.162Z,12.20
2022-10-19T07:01:58.093Z,11.30
2022-10-19T07:04:30.087Z,11.10
2022-10-19T07:07:08.146Z,12.90
2022-10-19T07:09:40.133Z,11.10
2022-10-19T07:12:12.225Z,11.93
2022-10-19T07:14:44.247Z,14.38
2022-10-19T07:17:16.696Z,13.82
2022-10-19T07:19:48.884Z,12.43
2022-10-19T07:22:27.138Z,12.65
2022-10-19T07:25:00.018Z,13.43
2022-10-19T07:27:37.403Z,13.90
2022-10-19T07:30:11.382Z,14.88
2022-10-19T07:32:46.929Z,15.00
2022-10-19T07:35:19.170Z,14.70
2022-10-19T07:37:51.345Z,14.05
2022-10-19T07:40:23.315Z,14.77
2022-10-19T07:42:55.360Z,14.10
2022-10-19T07:45:27.413Z,13.60
2022-10-19T07:48:00.888Z,14.73
2022-10-19T07:50:33.038Z,15.82
2022-10-19T07:53:05.324Z,15.60
2022-10-19T07:55:37.416Z,14.00
2022-10-19T07:58:09.414Z,15.57
2022-10-19T08:00:41.516Z,15.77
2022-10-19T08:06:09.240Z,16.00
2022-10-19T08:08:44.049Z,15.50
2022-10-19T08:11:21.547Z,15.60
2022-10-19T08:13:58.642Z,14.53
2022-10-19T08:16:42.304Z,15.30
2022-10-19T08:19:16.446Z,15.20
2022-10-19T08:21:48.799Z,15.00
2022-10-19T08:24:21.027Z,14.47
2022-10-19T08:26:53.094Z,13.90
2022-10-19T08:29:27.739Z,14.18
2022-10-19T08:32:02.822Z,12.02
2022-10-19T08:34:35.042Z,13.75
2022-10-19T08:37:19.699Z,11.88
2022-10-19T08:39:58.268Z,12.65
2022-10-19T08:42:50.326Z,12.70
2022-10-19T08:45:50.496Z,12.68
2022-10-19T08:48:36.948Z,13.25
2022-10-19T08:51:13.120Z,12.47
2022-10-19T08:54:02.572Z,11.97
2022-10-19T08:56:51.026Z,11.20
2022-10-19T08:59:52.035Z,11.23
2022-10-19T09:02:45.413Z,11.68
2022-10-19T09:06:21.957Z,11.45
2022-10-19T09:09:02.584Z,10.65
2022-10-19T09:11:42.097Z,11.27
2022-10-19T09:14:31.435Z,12.30
2022-10-19T09:17:22.293Z,11.73
2022-10-19T09:19:57.127Z,11.85
2022-10-19T09:22:44.775Z,10.57
2022-10-19T09:25:23.185Z,10.73
2022-10-19T09:28:38.962Z,12.02
2022-10-19T09:31:40.716Z,10.50
2022-10-19T09:34:26.067Z,10.23
2022-10-19T09:37:03.624Z,9.88
2022-10-19T09:39:35.748Z,7.95
2022-10-19T09:42:16.549Z,8.13
2022-10-19T09:44:55.084Z,7.63
2022-10-19T09:47:39.615Z,7.75
2022-10-19T09:50:23.672Z,6.35
2022-10-19T09:53:02.642Z,5.30
2022-10-19T09:55:45.555Z,5.90
2022-10-19T09:58:29.109Z,5.65
2022-10-19T10:01:05.032Z,5.90
2022-10-19T10:03:43.543Z,5.50
2022-10-19T10:06:21.734Z,5.45
2022-10-19T10:08:59.007Z,4.93
2022-10-19T10:11:38.287Z,4.72
2022-10-19T10:14:32.243Z,5.00
2022-10-19T10:17:16.654Z,4.82
2022-10-19T10:20:00.296Z,4.00
2022-10-19T10:22:37.231Z,4.00
2022-10-19T10:25:18.085Z,3.80
2022-10-19T10:28:00.108Z,3.88
2022-10-19T10:30:52.889Z,3.80
2022-10-19T10:33:45.856Z,3.58
2022-10-19T10:36:28.994Z,3.80
2022-10-19T10:39:06.898Z,4.32
2022-10-19T10:41:45.079Z,3.85
2022-10-19T10:44:20.308Z,3.90
2022-10-19T10:47:00.748Z,3.88
2022-10-19T10:49:37.397Z,3.90
2022-10-19T10:52:15.421Z,3.88
2022-10-19T10:55:03.427Z,4.35
2022-10-19T10:57:51.710Z,4.00
2022-10-19T11:00:34.714Z,4.63
2022-10-19T11:03:33.216Z,4.30
2022-10-19T11:06:09.070Z,4.43
2022-10-19T11:09:09.262Z,3.95
2022-10-19T11:12:05.086Z,3.58
2022-10-19T11:14:53.807Z,3.67
2022-10-19T11:18:14.690Z,3.22
2022-10-19T11:21:12.124Z,4.20
2022-10-19T11:24:15.791Z,4.57
2022-10-19T11:27:32.675Z,3.67
2022-10-19T11:30:24.347Z,4.43
2022-10-19T11:33:11.426Z,3.70
2022-10-19T11:36:12.666Z,4.70
2022-10-19T11:39:07.405Z,4.03
2022-10-19T11:42:14.383Z,3.95
2022-10-19T11:45:16.710Z,3.90
2022-10-19T11:48:34.024Z,4.20
2022-10-19T11:51:46.688Z,5.03
2022-10-19T11:54:42.650Z,4.30
2022-10-19T11:57:48.566Z,4.53
2022-10-19T12:00:39.025Z,4.70
2022-10-19T12:03:57.116Z,4.90
2022-10-19T12:06:59.677Z,4.22
2022-10-19T12:09:50.302Z,5.00
2022-10-19T12:12:50.700Z,5.25
2022-10-19T12:15:37.874Z,5.10
2022-10-19T12:18:50.569Z,4.47
2022-10-19T12:21:33.447Z,4.30
2022-10-19T12:24:17.720Z,4.30
2022-10-19T12:26:54.846Z,5.20
2022-10-19T12:30:05.352Z,3.90
2022-10-19T12:33:03.588Z,3.60
2022-10-19T12:36:00.016Z,3.80
2022-10-19T12:39:11.823Z,4.40
2022-10-19T12:42:16.834Z,3.90
2022-10-19T12:45:41.501Z,3.67
2022-10-19T12:48:24.577Z,3.30
2022-10-19T12:51:00.617Z,3.80
2022-10-19T12:53:38.315Z,3.47
2022-10-19T12:56:18.630Z,3.50
2022-10-19T12:59:03.543Z,3.80
2022-10-19T13:01:35.567Z,3.80
2022-10-19T13:04:34.886Z,4.17
2022-10-19T13:07:08.757Z,4.27
2022-10-19T13:09:48.626Z,5.10
2022-10-19T13:12:22.473Z,5.17
2022-10-19T13:14:59.381Z,4.47
2022-10-19T13:17:40.851Z,4.30
2022-10-19T13:20:24.926Z,4.67
2022-10-19T13:23:17.364Z,5.33
2022-10-19T13:26:32.468Z,4.00
2022-10-19T13:29:25.321Z,4.70
2022-10-19T13:32:37.887Z,3.90
2022-10-19T13:35:22.171Z,3.93
2022-10-19T13:38:16.348Z,3.60
2022-10-19T13:40:52.453Z,4.17
2022-10-19T13:43:35.490Z,4.17
2022-10-19T13:47:03.951Z,4.30
2022-10-19T13:50:24.957Z,4.20
2022-10-19T13:53:30.174Z,3.77
2022-10-19T13:56:18.533Z,3.80
2022-10-19T13:59:35.196Z,4.27
2022-10-19T14:02:48.757Z,4.30
2022-10-19T14:06:02.698Z,3.87
2022-10-19T14:09:14.154Z,4.17
2022-10-19T14:12:22.368Z,3.80
2022-10-19T14:14:57.412Z,4.10
2022-10-19T14:17:34.173Z,3.80
2022-10-19T14:20:25.200Z,4.07
2022-10-19T14:23:22.792Z,3.80
2022-10-19T14:26:19.630Z,4.40
2022-10-19T14:28:57.022Z,4.07
2022-10-19T14:31:36.488Z,3.97
2022-10-19T14:34:09.756Z,3.50
2022-10-19T14:36:48.316Z,3.70
2022-10-19T14:39:31.163Z,3.80
2022-10-19T14:42:06.486Z,3.80
2022-10-19T14:44:44.500Z,3.63
2022-10-19T14:47:22.624Z,4.07
2022-10-19T14:49:56.400Z,3.50
2022-10-19T14:52:34.538Z,3.40
2022-10-19T14:55:17.783Z,3.67
2022-10-19T14:57:52.913Z,4.43
2022-10-19T15:03:06.690Z,3.63
2022-10-19T15:05:48.205Z,3.87
2022-10-19T15:08:31.119Z,3.60
2022-10-19T15:11:09.149Z,3.97
2022-10-19T15:14:03.157Z,3.20
2022-10-19T15:16:59.806Z,3.60
2022-10-19T15:19:37.330Z,4.30
2022-10-19T15:22:16.693Z,4.13
2022-10-19T15:24:59.385Z,3.97
2022-10-19T15:27:52.704Z,3.60
2022-10-19T15:30:31.685Z,3.93
2022-10-19T15:33:17.949Z,4.17
2022-10-19T15:35:51.089Z,4.70
2022-10-19T15:38:27.127Z,4.50
2022-10-19T15:41:01.564Z,4.23
2022-10-19T15:43:44.516Z,4.03
2022-10-19T15:46:28.221Z,4.53
2022-10-19T15:49:16.094Z,4.50
2022-10-19T15:52:18.913Z,3.73
2022-10-19T15:54:56.513Z,5.43
2022-10-19T15:57:37.142Z,4.50
2022-10-19T16:00:16.079Z,5.10
2022-10-19T16:02:48.587Z,4.70
2022-10-19T16:05:20.694Z,5.60
2022-10-19T16:07:53.240Z,5.10
2022-10-19T16:10:27.000Z,5.07
2022-10-19T16:12:59.436Z,5.10
2022-10-19T16:15:32.119Z,5.40
2022-10-19T16:18:04.498Z,5.40
2022-10-19T16:20:37.404Z,5.77
2022-10-19T16:23:12.611Z,5.57
2022-10-19T16:25:45.550Z,5.73
2022-10-19T16:28:30.845Z,5.40
2022-10-19T16:31:03.420Z,5.85
2022-10-19T16:33:36.011Z,5.18
2022-10-19T16:36:09.245Z,5.80
2022-10-19T16:38:41.907Z,5.60
2022-10-19T16:41:14.707Z,5.78
2022-10-19T16:43:48.626Z,6.10
2022-10-19T16:46:25.960Z,6.35
2022-10-19T16:48:58.463Z,6.40
2022-10-19T16:51:39.482Z,7.10
2022-10-19T16:54:13.436Z,6.90
2022-10-19T16:56:48.382Z,7.30
2022-10-19T16:59:21.313Z,6.60
2022-10-19T17:01:54.165Z,6.10
2022-10-19T17:04:26.737Z,7.22
2022-10-19T17:06:59.056Z,6.72
2022-10-19T17:09:47.925Z,7.25
2022-10-19T17:12:22.233Z,6.95
2022-10-19T17:15:02.954Z,7.32
2022-10-19T17:17:47.329Z,7.50
2022-10-19T17:20:20.342Z,8.90
2022-10-19T17:22:53.014Z,8.07
2022-10-19T17:25:26.084Z,8.23
2022-10-19T17:27:59.263Z,8.48
2022-10-19T17:30:32.074Z,8.43
2022-10-19T17:33:05.747Z,10.02
2022-10-19T17:35:38.520Z,8.05
2022-10-19T17:38:11.434Z,8.52
2022-10-19T17:40:44.192Z,9.00
2022-10-19T17:43:21.903Z,9.63
2022-10-19T17:45:59.851Z,8.93
2022-10-19T17:48:35.906Z,9.40
2022-10-19T17:51:16.001Z,9.30
2022-10-19T17:53:52.956Z,9.05
2022-10-19T17:56:29.982Z,9.18
2022-10-19T17:59:03.416Z,9.73
2022-10-19T18:01:37.297Z,9.30
2022-10-19T18:04:10.181Z,8.68
2022-10-19T18:06:43.390Z,10.43
2022-10-19T18:09:16.348Z,10.25
2022-10-19T18:11:49.171Z,10.15
2022-10-19T18:14:22.418Z,10.40
2022-10-19T18:16:55.283Z,10.00
2022-10-19T18:19:28.718Z,9.57
2022-10-19T18:22:01.562Z,10.20
2022-10-19T18:24:34.854Z,11.00
2022-10-19T18:27:14.379Z,9.63
2022-10-19T18:29:47.548Z,10.15
2022-10-19T18:32:20.213Z,10.18
2022-10-19T18:34:52.486Z,10.15
2022-10-19T18:37:25.503Z,11.07
2022-10-19T18:39:58.246Z,11.82
2022-10-19T18:42:32.161Z,11.57
2022-10-19T18:45:04.904Z,11.88
2022-10-19T18:47:37.823Z,11.23
2022-10-19T18:50:10.377Z,11.30
2022-10-19T18:52:44.068Z,10.55
2022-10-19T18:55:16.250Z,9.75
2022-10-19T18:57:48.732Z,9.55
2022-10-19T19:00:20.871Z,9.75
2022-10-19T19:02:54.696Z,10.60
2022-10-19T19:05:49.981Z,11.05
2022-10-19T19:08:21.975Z,10.45
2022-10-19T19:10:54.656Z,10.30
2022-10-19T19:13:27.787Z,10.80
2022-10-19T19:16:00.361Z,10.55
2022-10-19T19:18:34.178Z,10.68
2022-10-19T19:21:18.976Z,10.57
2022-10-19T19:23:56.404Z,10.10
2022-10-19T19:26:35.999Z,9.45
2022-10-19T19:29:13.175Z,10.43
2022-10-19T19:31:47.446Z,10.25
2022-10-19T19:34:20.793Z,10.80
2022-10-19T19:36:54.317Z,10.35
2022-10-19T19:39:26.554Z,10.15
2022-10-19T19:41:58.999Z,11.68
2022-10-19T19:44:31.455Z,10.80
2022-10-19T19:47:03.901Z,10.75
2022-10-19T19:49:36.952Z,11.68
2022-10-19T19:52:09.374Z,11.88
2022-10-19T19:54:42.061Z,12.02
2022-10-19T19:57:15.172Z,10.85
2022-10-19T19:59:48.662Z,11.57
2022-10-19T20:02:21.702Z,10.85
2022-10-19T20:04:53.848Z,10.75
2022-10-19T20:07:27.087Z,10.98
2022-10-19T20:09:59.409Z,11.32
2022-10-19T20:12:32.037Z,11.65
2022-10-19T20:15:04.862Z,11.05
2022-10-19T20:17:38.904Z,12.15
2022-10-19T20:20:13.015Z,12.07
2022-10-19T20:22:48.181Z,11.15
2022-10-19T20:26:17.210Z,11.45
2022-10-19T20:28:52.315Z,10.60
2022-10-19T20:31:25.249Z,10.85
2022-10-19T20:33:57.459Z,12.40
2022-10-19T20:36:29.693Z,11.23
2022-10-19T20:39:01.693Z,11.45
2022-10-19T20:41:34.294Z,11.10
2022-10-19T20:44:06.518Z,11.57
2022-10-19T20:46:38.629Z,11.75
2022-10-19T20:49:12.182Z,11.70
2022-10-19T20:51:44.196Z,10.68
2022-10-19T20:54:16.247Z,11.57
2022-10-19T20:56:48.439Z,11.45
2022-10-19T20:59:22.941Z,11.93
2022-10-19T21:01:59.625Z,11.10
2022-10-19T21:04:31.861Z,11.88
2022-10-19T21:07:05.145Z,11.70
2022-10-19T21:09:37.287Z,11.27
2022-10-19T21:12:09.304Z,10.68
2022-10-19T21:14:41.338Z,10.50
2022-10-19T21:17:13.891Z,11.80
2022-10-19T21:19:45.930Z,11.52
2022-10-19T21:22:17.953Z,11.68
2022-10-19T21:24:50.242Z,11.45
2022-10-19T21:27:22.469Z,12.10
2022-10-19T21:29:54.494Z,11.63
2022-10-19T21:32:26.524Z,10.80
2022-10-19T21:34:58.498Z,11.02
2022-10-19T21:37:30.524Z,10.90
2022-10-19T21:40:02.503Z,10.55
2022-10-19T21:42:34.779Z,10.35
2022-10-19T21:45:28.742Z,10.63
2022-10-19T21:47:59.726Z,11.00
2022-10-19T21:50:31.801Z,10.90
2022-10-19T21:53:03.972Z,11.25
2022-10-19T21:55:36.805Z,10.95
2022-10-19T21:58:09.238Z,10.75
2022-10-19T22:00:41.243Z,10.30
2022-10-19T22:05:52.590Z,10.52
2022-10-19T22:08:24.964Z,10.80
2022-10-19T22:10:57.359Z,11.38
2022-10-19T22:13:29.772Z,11.45
2022-10-19T22:16:17.679Z,11.70
2022-10-19T22:18:51.094Z,10.98
2022-10-19T22:21:26.577Z,10.73
2022-10-19T22:24:06.633Z,10.65
2022-10-19T22:26:45.415Z,11.23
2022-10-19T22:29:19.159Z,11.85
2022-10-19T22:31:51.189Z,10.95
2022-10-19T22:34:23.259Z,11.23
2022-10-19T22:36:55.214Z,12.57
2022-10-19T22:39:28.080Z,10.93
2022-10-19T22:42:00.928Z,12.00
2022-10-19T22:44:33.041Z,9.73
2022-10-19T22:47:05.044Z,11.90
2022-10-19T22:49:36.983Z,12.23
2022-10-19T22:52:08.960Z,11.85
2022-10-19T22:54:40.880Z,11.90
2022-10-19T22:57:13.537Z,11.10
2022-10-19T22:59:45.559Z,12.18
2022-10-19T23:02:17.466Z,11.02
2022-10-19T23:04:49.416Z,11.80
2022-10-19T23:07:21.326Z,11.38
2022-10-19T23:09:53.249Z,11.23
2022-10-19T23:12:25.413Z,12.05
2022-10-19T23:14:57.340Z,11.20
2022-10-19T23:17:29.223Z,11.65
2022-10-19T23:20:01.123Z,9.95
2022-10-19T23:22:33.004Z,11.60
2022-10-19T23:25:05.539Z,10.57
2022-10-19T23:27:38.397Z,11.32
2022-10-19T23:30:11.195Z,13.05
2022-10-19T23:32:43.179Z,11.02
2022-10-19T23:35:15.285Z,11.50
2022-10-19T23:37:47.387Z,11.27
2022-10-19T23:40:19.315Z,12.23
2022-10-19T23:42:51.400Z,11.23
2022-10-19T23:46:20.254Z,11.43
2022-10-19T23:48:52.317Z,10.93
2022-10-19T23:51:24.433Z,11.23
2022-10-19T23:53:56.694Z,11.38
2022-10-19T23:56:29.685Z,10.45
2022-10-19T23:59:01.615Z,12.30
